Time;durP1;ratioP1;P1;durP2;ratioP2;P2;SDS_P1;SDS_P2;PMS_P1;PMS_P2;Temp;Humidity;BMP_temperature;BMP_pressure;BME280_temperature;BME280_humidity;BME280_pressure;Samples;Min_cycle;Max_cycle;Signal;HPM_P1;HPM_P2
2021/03/19 00:01:24;;;;;;;1.50;1.00;;;;;;;2.71;65.32;101234.88;5105550;28;20443;-64
2021/03/19 00:03:49;;;;;;;2.30;1.10;;;;;;;2.70;65.79;101246.81;5105712;28;20319;-63
2021/03/19 00:06:15;;;;;;;2.42;0.90;;;;;;;2.64;65.72;101238.00;5105413;28;20028;-64
2021/03/19 00:08:40;;;;;;;1.90;1.05;;;;;;;2.61;65.79;101243.91;5105297;28;20031;-63
2021/03/19 00:11:05;;;;;;;1.98;0.90;;;;;;;2.59;66.02;101242.97;5120906;28;20091;-64
2021/03/19 00:13:31;;;;;;;1.63;0.82;;;;;;;2.57;66.20;101253.16;5105502;28;20016;-64
2021/03/19 00:15:56;;;;;;;2.25;1.17;;;;;;;2.50;66.46;101248.63;5105229;28;20020;-62
2021/03/19 00:18:22;;;;;;;1.77;1.00;;;;;;;2.47;66.71;101257.09;5105251;28;20024;-64
2021/03/19 00:20:48;;;;;;;3.22;1.10;;;;;;;2.44;66.92;101264.66;5105135;28;20354;-64
2021/03/19 00:23:14;;;;;;;1.80;1.00;;;;;;;2.39;66.88;101260.16;5105250;28;20023;-64
2021/03/19 00:25:41;;;;;;;4.22;1.30;;;;;;;2.39;67.26;101255.91;5104775;28;20028;-64
2021/03/19 00:28:07;;;;;;;2.63;1.17;;;;;;;2.37;67.24;101252.41;5105192;28;20030;-64
2021/03/19 00:30:34;;;;;;;2.00;1.00;;;;;;;2.35;67.50;101257.47;5104932;28;20324;-64
2021/03/19 00:33:01;;;;;;;2.05;0.80;;;;;;;2.34;67.76;101259.97;5104903;28;20583;-62
2021/03/19 00:35:27;;;;;;;2.03;0.98;;;;;;;2.34;67.84;101270.22;5104925;28;20083;-64
2021/03/19 00:37:52;;;;;;;1.30;1.02;;;;;;;2.29;67.71;101264.91;5105087;28;20039;-64
2021/03/19 00:40:18;;;;;;;2.25;1.10;;;;;;;2.29;68.17;101269.16;5104544;28;20024;-64
2021/03/19 00:42:44;;;;;;;2.47;1.25;;;;;;;2.26;68.50;101269.03;5104850;28;20020;-64
2021/03/19 00:45:14;;;;;;;2.92;1.10;;;;;;;2.21;68.54;101276.53;5120209;28;20043;-63
2021/03/19 00:47:40;;;;;;;1.50;0.93;;;;;;;2.18;69.06;101287.56;5104903;28;20024;-64
2021/03/19 00:50:12;;;;;;;1.80;1.13;;;;;;;2.14;69.04;101289.94;5104577;28;20034;-64
2021/03/19 00:52:38;;;;;;;1.50;1.35;;;;;;;2.14;69.15;101305.31;5104916;28;20017;-64
2021/03/19 00:55:09;;;;;;;4.03;1.02;;;;;;;2.10;69.34;101310.31;5104384;28;20035;-64
2021/03/19 00:57:35;;;;;;;2.17;0.80;;;;;;;2.04;69.86;101320.31;5104616;28;20035;-64
2021/03/19 01:00:00;;;;;;;2.85;1.23;;;;;;;2.01;70.10;101332.09;5104467;28;20024;-64
2021/03/19 01:02:26;;;;;;;1.55;0.90;;;;;;;1.92;70.64;101345.38;5104388;28;20115;-63
2021/03/19 01:04:53;;;;;;;2.97;1.20;;;;;;;1.87;71.12;101347.75;5104154;28;20089;-64
2021/03/19 01:07:18;;;;;;;1.73;0.95;;;;;;;1.82;71.54;101359.50;5104264;28;20022;-64
2021/03/19 01:09:43;;;;;;;1.50;1.10;;;;;;;1.76;71.81;101361.78;5104151;28;20455;-64
2021/03/19 01:12:09;;;;;;;4.10;1.30;;;;;;;1.68;72.47;101358.88;5103754;28;20041;-64
2021/03/19 01:14:34;;;;;;;1.92;0.85;;;;;;;1.56;72.64;101359.22;5119961;28;20215;-63
2021/03/19 01:16:59;;;;;;;3.38;1.00;;;;;;;1.47;73.12;101365.69;5104346;28;20062;-64
2021/03/19 01:19:25;;;;;;;2.50;1.20;;;;;;;1.44;73.45;101374.91;5104239;28;20028;-64
2021/03/19 01:21:50;;;;;;;2.25;1.10;;;;;;;1.62;73.63;101367.16;5104104;28;20027;-64
2021/03/19 01:24:15;;;;;;;2.10;1.10;;;;;;;1.40;74.13;101378.13;5103713;28;20035;-62
2021/03/19 01:26:41;;;;;;;2.25;0.70;;;;;;;1.45;74.63;101389.47;5104111;28;20043;-63
2021/03/19 01:29:07;;;;;;;1.33;0.73;;;;;;;1.34;74.71;101374.47;5103942;28;20434;-63
2021/03/19 01:31:32;;;;;;;2.00;1.02;;;;;;;1.33;74.57;101379.53;5104032;28;20024;-64
2021/03/19 01:33:58;;;;;;;1.85;1.05;;;;;;;1.19;75.00;101372.13;5103835;28;20024;-63
2021/03/19 01:36:24;;;;;;;1.90;1.10;;;;;;;1.20;74.83;101378.09;5103831;28;20023;-64
2021/03/19 01:38:49;;;;;;;1.20;0.90;;;;;;;1.20;74.82;101393.44;5103400;28;20384;-64
2021/03/19 01:41:15;;;;;;;3.40;1.08;;;;;;;1.18;74.95;101393.38;5103563;28;20038;-63
2021/03/19 01:44:00;;;;;;;2.33;1.20;;;;;;;1.26;74.82;101397.97;5103959;28;20028;-64
2021/03/19 01:47:03;;;;;;;0.75;0.70;;;;;;;1.21;74.74;101398.66;5103408;28;20054;-63
2021/03/19 01:50:05;;;;;;;1.70;1.00;;;;;;;1.33;74.14;101407.69;5103567;28;20031;-63
2021/03/19 01:53:08;;;;;;;1.90;1.10;;;;;;;1.23;74.35;101407.25;5103707;28;20504;-63
2021/03/19 01:56:11;;;;;;;1.30;1.10;;;;;;;1.23;74.44;101419.19;5103527;28;20028;-64
2021/03/19 01:59:13;;;;;;;1.65;1.48;;;;;;;1.37;73.84;101437.75;5103549;28;20032;-63
2021/03/19 02:02:16;;;;;;;3.45;1.02;;;;;;;1.35;73.98;101441.91;5103702;28;20050;-63
2021/03/19 02:05:19;;;;;;;2.05;1.02;;;;;;;1.38;73.79;101447.16;5103271;28;20028;-63
2021/03/19 02:08:22;;;;;;;1.45;1.00;;;;;;;1.28;73.99;101455.22;5103491;28;20039;-62
2021/03/19 02:11:25;;;;;;;3.22;1.45;;;;;;;1.29;74.17;101454.41;5103112;28;20043;-63
2021/03/19 02:14:28;;;;;;;5.28;1.48;;;;;;;1.31;73.96;101461.34;5103236;28;20032;-62
2021/03/19 02:17:30;;;;;;;2.70;1.00;;;;;;;1.28;73.84;101455.22;5103090;28;20031;-62
2021/03/19 02:20:33;;;;;;;2.10;1.13;;;;;;;1.32;73.35;101467.34;5103287;28;20042;-63
2021/03/19 02:23:36;;;;;;;2.25;0.63;;;;;;;1.35;72.00;101454.69;5104859;28;20020;-63
2021/03/19 02:26:39;;;;;;;1.10;0.75;;;;;;;1.18;71.43;101470.13;5106981;28;20044;-63
2021/03/19 02:29:42;;;;;;;1.17;1.00;;;;;;;1.17;70.65;101475.16;5122828;28;20089;-62
2021/03/19 02:32:19;;;;;;;0.82;0.80;;;;;;;1.08;70.85;101490.97;5107298;28;20023;-62
2021/03/19 02:35:11;;;;;;;1.90;1.30;;;;;;;0.95;70.98;101495.47;5107023;28;20024;-63
2021/03/19 02:37:37;;;;;;;0.95;0.70;;;;;;;0.93;70.45;101506.41;5107186;28;20023;-63
2021/03/19 02:40:10;;;;;;;0.80;0.57;;;;;;;0.88;70.29;101503.63;5106783;28;20032;-63
2021/03/19 02:42:36;;;;;;;1.05;0.65;;;;;;;0.84;70.05;101510.31;5106721;28;20032;-63
2021/03/19 02:45:04;;;;;;;1.30;0.88;;;;;;;0.72;69.96;101513.13;5106538;28;20083;-63
2021/03/19 02:47:29;;;;;;;0.95;0.70;;;;;;;0.81;69.29;101507.59;5122652;28;20020;-63
2021/03/19 02:49:55;;;;;;;0.88;0.70;;;;;;;0.76;68.75;101519.25;5106800;28;20024;-63
2021/03/19 02:52:23;;;;;;;1.08;0.80;;;;;;;0.82;67.99;101508.44;5107029;28;20031;-63
2021/03/19 02:54:49;;;;;;;0.73;0.60;;;;;;;0.66;67.77;101530.69;5106447;28;20107;-62
2021/03/19 02:57:14;;;;;;;0.77;0.70;;;;;;;0.68;66.65;101562.34;5106855;28;20042;-64
2021/03/19 02:59:39;;;;;;;0.60;0.60;;;;;;;0.77;65.35;101544.00;5106755;28;20020;-64
2021/03/19 03:02:05;;;;;;;0.70;0.70;;;;;;;0.48;66.48;101553.63;5106813;28;20024;-63
2021/03/19 03:04:31;;;;;;;0.80;0.63;;;;;;;0.41;67.06;101554.13;5106621;28;20024;-64
2021/03/19 03:06:58;;;;;;;0.88;0.80;;;;;;;0.36;67.09;101553.88;5122118;28;20028;-63
2021/03/19 03:09:33;;;;;;;2.20;0.80;;;;;;;0.40;67.11;101575.38;5106322;28;20032;-63
2021/03/19 03:11:58;;;;;;;3.03;0.93;;;;;;;0.32;67.08;101565.59;5106640;28;20051;-63
2021/03/19 03:14:31;;;;;;;2.28;1.00;;;;;;;0.24;67.64;101564.31;5106351;28;20035;-61
2021/03/19 03:16:58;;;;;;;1.88;0.93;;;;;;;0.24;67.79;101570.31;5106502;28;20129;-62
2021/03/19 03:19:24;;;;;;;1.85;1.40;;;;;;;0.33;67.24;101580.16;5106139;28;20468;-62
2021/03/19 03:21:51;;;;;;;1.05;0.70;;;;;;;0.28;67.21;101583.25;5106366;28;20054;-61
2021/03/19 03:24:17;;;;;;;0.80;0.80;;;;;;;0.22;67.18;101578.72;5106135;28;20448;-62
2021/03/19 03:26:43;;;;;;;1.25;0.63;;;;;;;0.10;67.80;101586.56;5105942;28;20027;-61
2021/03/19 03:29:11;;;;;;;2.53;0.70;;;;;;;0.06;68.18;101583.00;5105984;28;20061;-61
2021/03/19 03:31:36;;;;;;;0.90;0.68;;;;;;;0.05;68.27;101593.13;5106287;28;20024;-63
2021/03/19 03:34:03;;;;;;;1.95;0.85;;;;;;;-0.03;68.69;101598.69;5105554;28;20028;-64
2021/03/19 03:36:29;;;;;;;1.20;0.80;;;;;;;-0.08;68.97;101596.69;5105879;28;20031;-63
2021/03/19 03:38:55;;;;;;;1.35;1.02;;;;;;;-0.08;68.99;101615.41;5105974;28;20028;-63
2021/03/19 03:41:26;;;;;;;1.42;1.05;;;;;;;-0.08;69.05;101622.22;5105704;28;20027;-63
2021/03/19 03:43:51;;;;;;;1.90;0.90;;;;;;;-0.18;69.07;101602.97;5105981;28;20024;-63
2021/03/19 03:46:21;;;;;;;1.17;0.80;;;;;;;-0.22;69.11;101624.00;5105548;28;20043;-63
2021/03/19 03:48:47;;;;;;;2.95;1.08;;;;;;;-0.29;69.13;101625.34;5105601;28;20107;-63
2021/03/19 03:51:12;;;;;;;1.23;0.90;;;;;;;-0.36;69.32;101628.31;5105689;28;20024;-63
2021/03/19 03:53:40;;;;;;;1.90;0.90;;;;;;;-0.44;69.32;101631.34;5105720;28;20080;-63
2021/03/19 03:56:08;;;;;;;1.83;1.17;;;;;;;-0.54;68.84;101637.59;5105380;28;20012;-63
2021/03/19 03:58:34;;;;;;;1.10;0.80;;;;;;;-0.54;68.14;101639.25;5105831;28;20146;-63
2021/03/19 04:01:00;;;;;;;1.55;1.05;;;;;;;-0.63;67.03;101642.16;5105436;28;20028;-63
2021/03/19 04:03:25;;;;;;;1.23;0.98;;;;;;;-0.79;66.50;101643.81;5105424;28;20020;-64
2021/03/19 04:05:51;;;;;;;1.25;1.00;;;;;;;-0.82;66.04;101642.75;5105186;28;20058;-63
2021/03/19 04:08:19;;;;;;;4.22;1.63;;;;;;;-1.00;66.16;101656.19;5105496;28;20024;-63
2021/03/19 04:10:46;;;;;;;2.13;1.35;;;;;;;-1.10;66.32;101657.31;5105008;28;20020;-63
2021/03/19 04:13:11;;;;;;;2.55;1.30;;;;;;;-1.20;66.59;101642.25;5105304;28;20081;-63
2021/03/19 04:15:39;;;;;;;2.97;1.40;;;;;;;-1.20;66.52;101649.91;5105158;28;20020;-63
2021/03/19 04:18:07;;;;;;;1.35;1.02;;;;;;;-1.15;66.15;101658.72;5105271;28;20020;-63
2021/03/19 04:20:33;;;;;;;0.95;0.77;;;;;;;-1.20;65.21;101670.28;5120694;28;20498;-63
2021/03/19 04:22:58;;;;;;;1.30;0.90;;;;;;;-1.06;63.96;101672.00;5105270;28;20028;-64
2021/03/19 04:25:24;;;;;;;1.05;0.90;;;;;;;-1.18;62.53;101678.91;5104768;28;20140;-63
2021/03/19 04:27:56;;;;;;;3.63;0.75;;;;;;;-1.19;59.88;101710.28;5105298;28;20074;-64
2021/03/19 04:30:27;;;;;;;1.58;0.90;;;;;;;-1.37;59.14;101690.53;5104738;28;20038;-65
2021/03/19 04:32:54;;;;;;;1.58;1.48;;;;;;;-1.63;58.83;101702.53;5105019;28;20115;-64
2021/03/19 04:35:21;;;;;;;2.92;1.20;;;;;;;-1.45;56.89;101686.66;5104809;28;20099;-64
2021/03/19 04:37:48;;;;;;;2.47;1.00;;;;;;;-1.60;56.80;101695.09;5104837;28;20076;-64
2021/03/19 04:40:14;;;;;;;1.02;0.90;;;;;;;-1.70;56.56;101685.09;5104716;28;20142;-64
2021/03/19 04:42:39;;;;;;;1.60;1.15;;;;;;;-1.60;55.98;101705.28;5104974;28;20038;-64
2021/03/19 04:45:05;;;;;;;1.38;0.98;;;;;;;-1.78;56.78;101697.34;5104314;28;20103;-63
2021/03/19 04:47:31;;;;;;;3.65;1.13;;;;;;;-1.81;56.85;101694.63;5103587;28;20016;-63
2021/03/19 04:49:56;;;;;;;2.03;1.20;;;;;;;-1.85;57.04;101706.25;5104550;28;20115;-64
2021/03/19 04:52:21;;;;;;;1.10;0.90;;;;;;;-1.73;56.22;101710.38;5104520;28;20023;-64
2021/03/19 04:54:47;;;;;;;5.15;1.50;;;;;;;-1.89;56.30;101709.41;5104160;28;20024;-63
2021/03/19 04:57:12;;;;;;;3.15;0.77;;;;;;;-1.78;55.99;101718.63;5104504;28;20103;-65
2021/03/19 04:59:38;;;;;;;4.07;0.82;;;;;;;-1.75;55.90;101728.09;5104414;28;20057;-64
2021/03/19 05:02:04;;;;;;;1.95;0.85;;;;;;;-1.87;56.42;101723.97;5104539;28;20031;-65
2021/03/19 05:04:29;;;;;;;3.53;1.27;;;;;;;-2.05;56.62;101712.63;5104250;28;20027;-65
2021/03/19 05:07:03;;;;;;;5.95;1.67;;;;;;;-1.93;56.41;101743.97;5104093;28;20111;-64
2021/03/19 05:09:30;;;;;;;3.75;1.20;;;;;;;-2.11;57.37;101748.75;5104145;28;20071;-63
2021/03/19 05:11:55;;;;;;;2.65;1.08;;;;;;;-2.05;57.06;101744.06;5104182;28;20020;-64
2021/03/19 05:14:21;;;;;;;2.92;1.17;;;;;;;-2.15;57.19;101746.78;5104009;28;20058;-64
2021/03/19 05:16:48;;;;;;;2.40;1.33;;;;;;;-2.16;56.95;101757.75;5103896;28;20440;-64
2021/03/19 05:19:14;;;;;;;6.13;1.35;;;;;;;-1.93;56.16;101766.88;5104265;28;20020;-64
2021/03/19 05:21:39;;;;;;;2.85;1.30;;;;;;;-2.10;55.87;101770.88;5103943;28;20035;-63
2021/03/19 05:24:05;;;;;;;1.65;1.00;;;;;;;-2.11;56.24;101784.38;5104129;28;20020;-63
2021/03/19 05:26:31;;;;;;;3.65;1.67;;;;;;;-1.98;56.25;101787.72;5103515;28;20020;-64
2021/03/19 05:28:56;;;;;;;3.78;1.60;;;;;;;-1.94;55.85;101795.66;5104024;28;20367;-64
2021/03/19 05:31:21;;;;;;;6.20;1.33;;;;;;;-1.89;56.08;101796.84;5103818;28;20105;-64
2021/03/19 05:33:50;;;;;;;2.83;1.10;;;;;;;-1.66;55.82;101809.31;5103837;28;20028;-63
2021/03/19 05:36:20;;;;;;;1.85;1.30;;;;;;;-1.52;54.95;101797.44;5103744;28;20088;-64
2021/03/19 05:38:45;;;;;;;2.83;1.52;;;;;;;-1.38;54.13;101806.84;5103603;28;20027;-63
2021/03/19 05:41:12;;;;;;;2.70;0.85;;;;;;;-1.27;54.44;101810.09;5103551;28;20024;-64
2021/03/19 05:43:40;;;;;;;4.35;1.38;;;;;;;-1.14;53.70;101819.38;5103474;28;20058;-63
2021/03/19 05:46:09;;;;;;;7.97;2.03;;;;;;;-1.09;53.94;101819.66;5103169;28;20523;-64
2021/03/19 05:48:58;;;;;;;1.67;0.98;;;;;;;-0.97;53.75;101839.94;5104112;28;20224;-64
2021/03/19 05:51:41;;;;;;;2.50;1.38;;;;;;;-0.75;51.45;101816.63;5101839;28;20032;-65
2021/03/19 05:54:13;;;;;;;6.18;1.30;;;;;;;-0.66;51.37;101825.63;5102490;28;20024;-64
2021/03/19 05:56:40;;;;;;;5.85;1.15;;;;;;;-0.55;51.19;101831.38;5103231;28;20031;-64
2021/03/19 05:59:05;;;;;;;1.95;1.10;;;;;;;-0.47;51.29;101827.63;5103228;28;20028;-64
2021/03/19 06:01:30;;;;;;;2.25;0.90;;;;;;;-0.27;49.13;101845.78;5103973;28;20039;-63
2021/03/19 06:03:59;;;;;;;0.70;0.60;;;;;;;-0.36;48.98;101835.03;5103854;28;20121;-64
2021/03/19 06:06:45;;;;;;;1.83;1.13;;;;;;;-0.26;48.91;101848.44;5118987;28;20020;-64
2021/03/19 06:09:31;;;;;;;2.47;1.08;;;;;;;-0.39;49.56;101861.25;5103634;28;20028;-63
2021/03/19 06:12:01;;;;;;;1.92;1.10;;;;;;;-0.16;48.25;101875.38;5103375;28;20032;-66
2021/03/19 06:14:29;;;;;;;3.75;1.08;;;;;;;-0.19;48.65;101864.13;5103458;28;20028;-64
2021/03/19 06:17:07;;;;;;;2.38;1.02;;;;;;;-0.20;47.95;101868.34;5103719;28;20012;-64
2021/03/19 06:19:37;;;;;;;3.35;1.30;;;;;;;-0.20;47.71;101877.66;5103835;28;20102;-65
2021/03/19 06:22:24;;;;;;;2.83;1.25;;;;;;;-0.21;47.85;101875.91;5103745;28;20027;-64
2021/03/19 06:25:00;;;;;;;1.67;0.85;;;;;;;0.06;47.81;101880.91;5103375;28;20035;-63
2021/03/19 06:27:35;;;;;;;3.00;1.23;;;;;;;0.19;47.93;101882.50;5103350;28;20027;-63
2021/03/19 06:30:11;;;;;;;1.55;1.17;;;;;;;0.39;47.75;101881.09;5103527;28;20084;-63
2021/03/19 06:32:36;;;;;;;2.63;1.58;;;;;;;0.72;45.13;101886.34;5103517;28;20427;-64
2021/03/19 06:35:17;;;;;;;3.38;0.70;;;;;;;0.69;46.39;101895.50;5103316;28;20028;-64
2021/03/19 06:37:47;;;;;;;4.00;1.30;;;;;;;0.70;46.29;101898.16;5103526;28;20024;-64
2021/03/19 06:40:36;;;;;;;2.00;1.20;;;;;;;0.82;47.02;101904.75;5103008;28;20020;-61
2021/03/19 06:43:31;;;;;;;2.30;1.33;;;;;;;1.17;47.25;101908.38;5103428;28;20035;-63
2021/03/19 06:46:11;;;;;;;0.90;0.57;;;;;;;1.34;46.22;101919.53;5098061;28;20089;-63
2021/03/19 06:48:42;;;;;;;1.98;0.93;;;;;;;1.55;45.24;101926.59;5103244;28;20048;-63
2021/03/19 06:51:23;;;;;;;1.10;0.80;;;;;;;1.50;43.44;101924.59;5102897;28;20023;-63
2021/03/19 06:54:07;;;;;;;2.80;0.90;;;;;;;1.47;44.80;101936.44;5103438;28;20110;-63
2021/03/19 06:56:33;;;;;;;4.13;1.27;;;;;;;1.79;44.87;101940.66;5103091;28;20016;-63
2021/03/19 06:59:15;;;;;;;2.95;1.13;;;;;;;2.14;44.27;101933.03;5103259;28;20024;-63
2021/03/19 07:01:41;;;;;;;;;;;;;;;2.39;42.55;101945.41;5103697;28;20385;-63
2021/03/19 07:04:09;;;;;;;2.13;0.93;;;;;;;2.20;42.14;101931.66;5103029;28;19908;-63
2021/03/19 07:06:43;;;;;;;5.28;1.20;;;;;;;2.26;42.27;101936.22;5102987;28;20088;-63
2021/03/19 07:09:23;;;;;;;1.48;0.85;;;;;;;2.46;40.72;101950.00;5103321;28;20083;-63
2021/03/19 07:12:01;;;;;;;3.40;1.10;;;;;;;2.27;41.06;101939.66;5106556;28;20024;-63
2021/03/19 07:14:48;;;;;;;1.70;1.40;;;;;;;2.31;42.23;101939.00;5106424;28;20031;-63
2021/03/19 07:17:16;;;;;;;2.30;0.80;;;;;;;2.83;40.98;101935.56;5106546;28;20505;-64
2021/03/19 07:20:01;;;;;;;3.83;1.13;;;;;;;3.06;40.20;101947.75;5106304;28;20028;-64
2021/03/19 07:23:04;;;;;;;1.95;1.13;;;;;;;2.99;39.21;101938.84;5106573;28;20035;-63
2021/03/19 07:25:45;;;;;;;1.75;0.90;;;;;;;2.82;39.03;101945.75;5082933;28;20026;-63
2021/03/19 07:28:31;;;;;;;2.13;1.23;;;;;;;2.75;39.88;101941.13;5083468;28;20388;-63
2021/03/19 07:31:34;;;;;;;3.63;1.08;;;;;;;2.67;39.22;101954.44;5083282;28;20024;-63
2021/03/19 07:34:09;;;;;;;1.58;0.80;;;;;;;2.47;39.85;101972.31;5083337;28;20082;-63
2021/03/19 07:36:37;;;;;;;1.92;0.70;;;;;;;2.50;39.16;101961.31;5083111;28;20054;-63
2021/03/19 07:39:18;;;;;;;2.85;1.33;;;;;;;2.34;40.50;101960.53;5083142;28;20031;-63
2021/03/19 07:41:55;;;;;;;1.10;0.80;;;;;;;2.63;40.50;101967.94;5082800;28;20028;-63
2021/03/19 07:44:45;;;;;;;1.65;0.93;;;;;;;2.53;39.37;101966.59;5082928;28;20028;-64
2021/03/19 07:47:24;;;;;;;5.60;1.15;;;;;;;2.50;39.74;101960.41;5082740;28;20040;-63
2021/03/19 07:50:14;;;;;;;2.80;0.93;;;;;;;2.48;39.67;101965.47;5082805;28;20051;-62
2021/03/19 07:53:12;;;;;;;4.20;1.10;;;;;;;2.44;39.91;101967.03;5082784;28;20045;-63
2021/03/19 07:55:47;;;;;;;2.08;1.10;;;;;;;2.45;40.34;101978.13;5082429;28;20392;-62
2021/03/19 07:58:57;;;;;;;3.03;1.17;;;;;;;2.40;40.47;101964.19;5082804;28;20032;-63
2021/03/19 08:01:34;;;;;;;3.03;1.50;;;;;;;2.50;40.89;101970.69;5099733;28;20036;-63
2021/03/19 08:04:11;;;;;;;1.48;0.95;;;;;;;2.60;40.26;101970.34;5105674;28;20049;-62
2021/03/19 08:06:41;;;;;;;1.88;1.23;;;;;;;2.57;40.37;101977.88;5105452;28;20115;-62
2021/03/19 08:09:32;;;;;;;3.47;1.08;;;;;;;2.56;40.00;101970.97;5105233;28;20495;-62
2021/03/19 08:12:09;;;;;;;2.05;1.00;;;;;;;2.54;40.10;101967.47;5105241;28;20047;-61
2021/03/19 08:15:14;;;;;;;2.10;1.00;;;;;;;2.59;40.55;101956.63;5105247;28;20511;-62
2021/03/19 08:17:51;;;;;;;5.53;1.90;;;;;;;2.69;39.36;101963.09;5105450;28;20032;-63
2021/03/19 08:20:19;;;;;;;5.38;1.17;;;;;;;2.64;39.91;101956.88;5105126;28;20024;-63
2021/03/19 08:22:48;;;;;;;1.30;0.80;;;;;;;2.65;38.83;101955.19;5105146;28;20106;-63
2021/03/19 08:25:29;;;;;;;0.80;0.65;;;;;;;2.85;37.22;101959.63;5104692;28;20028;-63
2021/03/19 08:28:01;;;;;;;1.30;0.95;;;;;;;2.16;38.97;101964.72;5105358;28;20020;-63
2021/03/19 08:30:57;;;;;;;1.70;1.00;;;;;;;2.03;40.05;101963.22;5105148;28;20036;-61
2021/03/19 08:33:45;;;;;;;1.35;0.82;;;;;;;2.09;39.76;101971.22;5105106;28;20421;-62
2021/03/19 08:36:25;;;;;;;4.22;1.17;;;;;;;1.93;39.63;101992.59;5104945;28;20045;-62
2021/03/19 08:38:56;;;;;;;1.92;1.00;;;;;;;1.85;40.65;101989.63;5104960;28;20024;-63
2021/03/19 08:41:34;;;;;;;2.33;1.08;;;;;;;2.11;40.15;101995.22;5104491;28;20024;-64
2021/03/19 08:44:03;;;;;;;1.23;0.90;;;;;;;2.14;39.84;101994.53;5105163;28;20024;-62
2021/03/19 08:46:46;;;;;;;1.75;1.02;;;;;;;2.09;40.22;102001.97;5104461;28;20066;-63
2021/03/19 08:49:40;;;;;;;4.57;1.10;;;;;;;1.98;40.34;102002.25;5104720;28;20021;-63
2021/03/19 08:52:18;;;;;;;3.40;1.30;;;;;;;2.07;40.46;101999.31;5081643;28;20036;-63
2021/03/19 08:54:43;;;;;;;4.13;0.98;;;;;;;2.15;39.79;102004.84;5081253;28;20074;-62
2021/03/19 08:57:08;;;;;;;0.88;0.73;;;;;;;2.07;39.46;102006.13;5081507;28;20032;-62
2021/03/19 08:59:34;;;;;;;5.15;1.60;;;;;;;1.96;39.08;102013.25;5081667;28;20028;-63
2021/03/19 09:02:04;;;;;;;2.33;1.02;;;;;;;1.91;39.62;102020.69;5081530;28;20021;-63
2021/03/19 09:04:51;;;;;;;2.45;1.05;;;;;;;1.93;39.86;102020.75;5081460;28;20025;-62
2021/03/19 09:07:30;;;;;;;1.83;1.55;;;;;;;2.08;39.38;102013.00;5081351;28;20474;-63
2021/03/19 09:09:58;;;;;;;5.22;1.30;;;;;;;1.96;39.19;102010.69;5081398;28;20097;-62
2021/03/19 09:12:31;;;;;;;1.95;1.05;;;;;;;1.88;39.33;102014.50;5081754;28;20029;-63
2021/03/19 09:15:15;;;;;;;2.40;1.30;;;;;;;1.78;39.67;102015.69;5081189;28;20028;-63
2021/03/19 09:17:43;;;;;;;3.63;1.30;;;;;;;1.83;39.88;102032.19;5081195;28;20540;-64
2021/03/19 09:20:27;;;;;;;1.90;1.23;;;;;;;1.84;39.63;102031.38;5081438;28;20043;-62
2021/03/19 09:23:24;;;;;;;3.90;1.58;;;;;;;1.77;39.39;102030.19;5081232;28;20039;-63
2021/03/19 09:26:14;;;;;;;6.07;1.42;;;;;;;1.87;39.40;102023.88;5072853;28;20042;-62
2021/03/19 09:29:21;;;;;;;4.15;1.45;;;;;;;2.01;39.21;102016.03;5068556;28;20071;-63
2021/03/19 09:31:59;;;;;;;1.55;1.00;;;;;;;2.34;38.92;102013.47;5103759;28;20036;-62
2021/03/19 09:34:53;;;;;;;1.45;1.00;;;;;;;2.24;38.46;102024.94;5104202;28;20016;-62
2021/03/19 09:37:38;;;;;;;2.33;0.85;;;;;;;2.19;38.87;102016.16;5098771;28;20085;-63
2021/03/19 09:40:06;;;;;;;2.55;1.00;;;;;;;2.39;38.23;102009.47;5103849;28;20020;-62
2021/03/19 09:42:31;;;;;;;2.40;1.10;;;;;;;2.46;38.02;102023.50;5104222;28;20099;-62
2021/03/19 09:45:00;;;;;;;3.15;1.20;;;;;;;2.53;37.94;102009.28;5103683;28;20055;-62
2021/03/19 09:47:29;;;;;;;2.20;0.70;;;;;;;2.72;37.88;102009.44;5103673;28;20511;-63
2021/03/19 09:50:03;;;;;;;3.20;1.08;;;;;;;2.91;37.33;102007.75;5103792;28;20035;-63
2021/03/19 09:52:28;;;;;;;7.07;1.40;;;;;;;3.11;37.88;102005.31;5103892;28;20024;-61
2021/03/19 09:54:54;;;;;;;5.85;1.38;;;;;;;3.37;38.09;102009.91;5103299;28;20031;-61
2021/03/19 09:57:22;;;;;;;3.70;1.70;;;;;;;3.66;37.02;102011.28;5103539;28;20031;-62
2021/03/19 09:59:59;;;;;;;1.15;0.73;;;;;;;3.66;36.29;102006.13;5103860;28;20049;-63
2021/03/19 10:02:25;;;;;;;1.88;1.10;;;;;;;3.39;36.63;102016.88;5103801;28;20213;-63
2021/03/19 10:04:50;;;;;;;2.63;1.10;;;;;;;3.21;36.80;102012.63;5103901;28;20031;-63
2021/03/19 10:07:22;;;;;;;2.00;1.38;;;;;;;3.35;37.45;102010.72;5103400;28;20039;-63
2021/03/19 10:09:52;;;;;;;3.05;1.30;;;;;;;3.56;36.69;102009.09;5102470;28;20051;-62
2021/03/19 10:12:35;;;;;;;5.07;0.80;;;;;;;3.99;36.03;102014.44;5103727;28;20034;-66
2021/03/19 10:15:14;;;;;;;19.23;1.23;;;;;;;4.42;34.49;102012.88;5103571;28;20024;-62
2021/03/19 10:17:48;;;;;;;3.47;1.30;;;;;;;4.45;33.99;102020.72;5103479;28;20019;-62
2021/03/19 10:20:36;;;;;;;1.00;0.90;;;;;;;4.57;33.68;102008.38;5103611;28;20088;-63
2021/03/19 10:23:26;;;;;;;3.22;1.20;;;;;;;4.75;32.84;102015.09;5103531;28;20067;-63
2021/03/19 10:26:21;;;;;;;1.67;1.33;;;;;;;4.93;32.67;102002.13;5103157;28;20051;-63
2021/03/19 10:28:51;;;;;;;6.82;1.45;;;;;;;5.10;31.74;102004.50;5103291;28;20443;-63
2021/03/19 10:31:22;;;;;;;2.47;0.80;;;;;;;5.27;32.24;101997.44;5103205;28;20050;-63
2021/03/19 10:34:02;;;;;;;3.97;1.03;;;;;;;5.65;31.54;102009.16;5103337;28;20031;-63
2021/03/19 10:36:59;;;;;;;2.65;1.10;;;;;;;5.58;31.23;101987.44;5103243;28;20047;-64
2021/03/19 10:39:36;;;;;;;2.03;1.10;;;;;;;5.48;30.92;101998.22;5102959;28;20036;-64
2021/03/19 10:42:14;;;;;;;2.75;1.17;;;;;;;5.50;31.08;101991.41;5102994;28;20123;-68
2021/03/19 10:45:03;;;;;;;2.90;1.08;;;;;;;5.60;30.14;101979.78;5104063;28;20035;-62
2021/03/19 10:47:56;;;;;;;4.63;0.98;;;;;;;5.75;30.61;101980.34;5106724;28;20456;-61
2021/03/19 10:50:25;;;;;;;4.72;1.50;;;;;;;5.88;30.55;101976.50;5106789;28;20265;-61
2021/03/19 10:52:54;;;;;;;4.45;1.58;;;;;;;6.15;30.55;101986.09;5106936;28;20027;-62
2021/03/19 10:55:31;;;;;;;4.50;1.15;;;;;;;6.53;28.87;101982.22;5106725;28;20020;-62
2021/03/19 10:58:23;;;;;;;2.10;0.90;;;;;;;6.27;28.75;101975.34;5107078;28;20231;-62
2021/03/19 11:00:51;;;;;;;2.08;0.88;;;;;;;6.19;28.10;101972.50;5106886;28;20031;-63
2021/03/19 11:03:35;;;;;;;0.95;0.80;;;;;;;6.06;28.78;101996.09;5106801;28;20107;-65
2021/03/19 11:06:04;;;;;;;3.15;1.02;;;;;;;5.89;28.81;101969.66;5106470;28;20024;-64
2021/03/19 11:08:29;;;;;;;1.88;1.00;;;;;;;6.13;29.15;101977.44;5106577;28;20484;-63
2021/03/19 11:10:55;;;;;;;1.40;0.95;;;;;;;6.25;28.32;101977.00;5106518;28;20050;-62
2021/03/19 11:13:24;;;;;;;1.10;0.90;;;;;;;6.34;28.33;101971.28;5105293;28;20020;-62
2021/03/19 11:15:54;;;;;;;2.28;1.17;;;;;;;6.70;28.08;101975.03;5106416;28;20031;-63
2021/03/19 11:18:39;;;;;;;2.13;1.10;;;;;;;7.21;27.59;101982.66;5106451;28;20020;-63
2021/03/19 11:21:08;;;;;;;0.82;0.60;;;;;;;7.55;26.90;101974.22;5106279;28;20035;-63
2021/03/19 11:23:36;;;;;;;1.75;0.88;;;;;;;7.77;26.75;101967.09;5106322;28;20380;-62
2021/03/19 11:26:22;;;;;;;4.00;1.27;;;;;;;8.47;25.51;101973.25;5105940;28;20020;-63
2021/03/19 11:28:50;;;;;;;1.90;1.20;;;;;;;8.32;25.28;101965.97;5106475;28;20031;-63
2021/03/19 11:31:18;;;;;;;2.92;1.00;;;;;;;8.36;24.94;101964.31;5106007;28;20016;-63
2021/03/19 11:34:07;;;;;;;2.13;1.00;;;;;;;8.39;25.30;101975.63;5106426;28;20043;-63
2021/03/19 11:36:59;;;;;;;4.22;1.17;;;;;;;7.89;25.65;101971.72;5106182;28;20027;-64
2021/03/19 11:39:52;;;;;;;2.97;1.40;;;;;;;8.00;26.08;101971.16;5106312;28;20020;-62
2021/03/19 11:42:21;;;;;;;3.15;1.15;;;;;;;7.89;25.42;101963.97;5095409;28;20062;-62
2021/03/19 11:44:48;;;;;;;1.85;0.95;;;;;;;7.73;25.42;101954.88;5104299;28;20040;-63
2021/03/19 11:47:25;;;;;;;2.25;0.77;;;;;;;7.51;25.05;101966.31;5121518;28;20028;-63
2021/03/19 11:49:56;;;;;;;2.17;1.10;;;;;;;6.36;25.52;101969.63;5105963;28;20024;-63
2021/03/19 11:52:21;;;;;;;1.67;0.80;;;;;;;5.10;26.97;101973.59;5105912;28;20051;-62
2021/03/19 11:54:47;;;;;;;3.95;1.17;;;;;;;4.18;28.32;101978.47;5105710;28;20031;-63
2021/03/19 11:57:14;;;;;;;2.28;1.20;;;;;;;3.60;29.23;101975.03;5105344;28;20023;-64
2021/03/19 11:59:39;;;;;;;5.03;1.20;;;;;;;3.15;29.84;101968.69;5105716;28;20576;-62
2021/03/19 12:02:18;;;;;;;2.50;1.05;;;;;;;2.69;31.01;101975.94;5105735;28;20115;-62
2021/03/19 12:04:43;;;;;;;2.17;1.10;;;;;;;2.27;31.48;101978.97;5105631;28;20084;-62